< Typhoon 197301 1973 Season Typhoon 197303 >
Typhoon 197302 (ANITA)
General InformationTrack Information on Google Maps || Disaster Info.ResourceGoogle EarthGE AnimationAtom FeedGeoJSON
Detalied Best Track (Time Zone = UTC)
Year Month Day Hour Lat. Long. Pressure (hPa) Wind (kt) Class Image Chart
1973 7 4 18 12.0 113.0 1000 0 2 -- Chart
1973 7 5 00 12.0 113.0 998 0 2 -- Chart
1973 7 5 06 12.0 113.0 998 0 2 -- Chart
1973 7 5 12 12.0 113.0 998 0 2 -- Chart
1973 7 5 18 12.1 112.7 996 0 2 -- Chart
1973 7 6 00 12.2 112.5 994 0 2 -- Chart
1973 7 6 06 12.4 112.4 992 0 9 -- Chart
1973 7 6 12 12.9 112.1 992 0 9 -- Chart
1973 7 6 18 13.4 111.7 990 0 9 -- Chart
1973 7 7 00 14.5 111.0 985 0 9 -- Chart
1973 7 7 06 15.6 110.3 985 0 9 -- Chart
1973 7 7 12 16.5 109.9 985 0 9 -- Chart
1973 7 7 18 17.3 109.0 985 0 9 -- Chart
1973 7 8 00 17.6 107.7 980 0 9 -- Chart
1973 7 8 06 18.2 106.8 980 0 9 -- Chart
1973 7 8 12 18.8 105.4 985 0 9 -- Chart
1973 7 8 18 19.2 104.5 990 0 9 -- Chart
1973 7 9 00 19.6 103.5 995 0 2 -- Chart
1973 7 9 06 20.0 102.0 996 0 2 -- Chart
1973 7 9 12 20.5 100.4 996 0 2 -- Chart
1973 7 9 18 21.0 99.1 996 0 2 -- Chart
Japan Meteorological Agency Best Track Data | Correction Date : 1990-10-17
< Typhoon 197301 1973 Season Typhoon 197303 >

Help